Time;durP1;ratioP1;P1;durP2;ratioP2;P2;SDS_P1;SDS_P2;PMS_P1;PMS_P2;Temp;Humidity;BMP_temperature;BMP_pressure;BME280_temperature;BME280_humidity;BME280_pressure;Samples;Min_cycle;Max_cycle;Signal;HPM_P1;HPM_P2
2022/11/30 00:01:25;;;;;;;;;;;17.50;47.30;;;;;;8328867;28;19925;-47
2022/11/30 00:05:26;;;;;;;;;;;17.50;47.30;;;;;;8331118;28;20301;-46
2022/11/30 00:09:26;;;;;;;;;;;17.50;47.40;;;;;;8335429;28;19921;-46
2022/11/30 00:13:26;;;;;;;;;;;17.50;47.40;;;;;;8334917;28;19922;-46
2022/11/30 00:17:27;;;;;;;;;;;17.50;47.30;;;;;;8335217;28;19964;-46
2022/11/30 00:21:27;;;;;;;;;;;17.50;47.30;;;;;;8335122;28;20485;-46
2022/11/30 00:25:28;;;;;;;;;;;17.50;47.40;;;;;;8334389;28;19936;-45
2022/11/30 00:29:28;;;;;;;;;;;17.50;47.30;;;;;;8335137;28;19917;-46
2022/11/30 00:33:31;;;;;;;;;;;17.60;47.30;;;;;;8334880;28;19924;-46
2022/11/30 00:37:33;;;;;;;;;;;17.50;47.40;;;;;;8334293;28;19921;-46
2022/11/30 00:41:33;;;;;;;;;;;17.50;47.30;;;;;;8334603;28;19913;-46
2022/11/30 00:45:33;;;;;;;;;;;17.50;47.30;;;;;;8334116;28;20337;-45
2022/11/30 00:49:34;;;;;;;;;;;17.50;47.30;;;;;;8334533;28;19917;-45
2022/11/30 00:53:34;;;;;;;;;;;17.50;47.30;;;;;;8334586;28;19921;-46
2022/11/30 00:57:35;;;;;;;;;;;17.60;47.30;;;;;;8333624;28;19921;-45
2022/11/30 01:01:35;;;;;;;;;;;17.50;47.30;;;;;;8333886;28;19932;-45
2022/11/30 01:05:36;;;;;;;;;;;17.50;47.30;;;;;;8334097;28;19922;-46
2022/11/30 01:09:36;;;;;;;;;;;17.50;47.30;;;;;;8333128;28;19968;-45
2022/11/30 01:13:37;;;;;;;;;;;17.50;47.80;;;;;;8333775;28;19968;-46
2022/11/30 01:17:37;;;;;;;;;;;17.50;47.30;;;;;;8333222;28;19917;-46
2022/11/30 01:21:37;;;;;;;;;;;17.60;47.30;;;;;;8332947;28;19924;-46
2022/11/30 01:25:38;;;;;;;;;;;17.50;47.30;;;;;;8333265;28;19925;-46
2022/11/30 01:29:38;;;;;;;;;;;17.50;47.30;;;;;;8332976;28;19917;-46
2022/11/30 01:33:39;;;;;;;;;;;17.50;47.30;;;;;;8332535;28;19937;-45
2022/11/30 01:37:40;;;;;;;;;;;17.50;47.30;;;;;;8332915;28;20278;-45
2022/11/30 01:41:40;;;;;;;;;;;17.50;47.30;;;;;;8332783;28;19918;-46
2022/11/30 01:45:41;;;;;;;;;;;17.50;47.30;;;;;;8332052;28;19925;-46
2022/11/30 01:49:52;;;;;;;;;;;17.50;47.30;;;;;;8332648;28;20402;-46
2022/11/30 01:53:52;;;;;;;;;;;17.60;47.30;;;;;;8332398;28;19913;-46
2022/11/30 01:57:58;;;;;;;;;;;17.50;47.20;;;;;;8332082;28;20294;-46
2022/11/30 02:01:58;;;;;;;;;;;17.50;47.30;;;;;;8332068;28;20290;-46
2022/11/30 02:05:59;;;;;;;;;;;17.50;47.20;;;;;;8332034;28;19932;-46
2022/11/30 02:10:00;;;;;;;;;;;17.50;47.30;;;;;;8330019;28;19941;-47
2022/11/30 02:14:06;;;;;;;;;;;17.50;47.30;;;;;;8331912;28;20024;-45
2022/11/30 02:18:12;;;;;;;;;;;17.50;47.20;;;;;;8331637;28;20378;-46
2022/11/30 02:22:12;;;;;;;;;;;17.50;47.20;;;;;;8331143;28;19963;-46
2022/11/30 02:26:22;;;;;;;;;;;17.50;47.20;;;;;;8331679;28;19965;-46
2022/11/30 02:30:24;;;;;;;;;;;17.50;47.20;;;;;;8330507;28;19917;-46
2022/11/30 02:34:26;;;;;;;;;;;17.50;47.70;;;;;;8330683;28;19917;-46
2022/11/30 02:38:27;;;;;;;;;;;17.50;47.20;;;;;;8330931;28;20355;-46
2022/11/30 02:42:28;;;;;;;;;;;17.50;47.20;;;;;;8330778;28;20008;-47
2022/11/30 02:46:40;;;;;;;;;;;17.50;47.20;;;;;;8330453;28;19925;-46
2022/11/30 02:50:49;;;;;;;;;;;17.50;47.20;;;;;;8330915;28;19917;-46
2022/11/30 02:54:50;;;;;;;;;;;17.50;47.20;;;;;;8330141;28;20067;-45
2022/11/30 02:58:51;;;;;;;;;;;17.50;47.20;;;;;;8330635;28;19917;-45
2022/11/30 03:02:51;;;;;;;;;;;17.50;47.20;;;;;;8330569;28;20456;-46
2022/11/30 03:06:52;;;;;;;;;;;17.50;47.10;;;;;;8329918;28;19917;-45
2022/11/30 03:10:52;;;;;;;;;;;17.50;47.20;;;;;;8330481;28;19917;-45
2022/11/30 03:14:53;;;;;;;;;;;17.50;47.20;;;;;;8330239;28;20370;-46
2022/11/30 03:18:53;;;;;;;;;;;17.50;47.10;;;;;;8329563;28;19924;-45
2022/11/30 03:22:54;;;;;;;;;;;17.50;47.10;;;;;;8330225;28;20369;-46
2022/11/30 03:26:54;;;;;;;;;;;17.50;47.10;;;;;;8330179;28;19957;-46
2022/11/30 03:30:56;;;;;;;;;;;17.50;47.20;;;;;;8329444;28;19924;-46
2022/11/30 03:34:56;;;;;;;;;;;17.50;47.20;;;;;;8330095;28;19921;-46
2022/11/30 03:38:57;;;;;;;;;;;17.50;47.70;;;;;;8330881;28;19917;-46
2022/11/30 03:42:57;;;;;;;;;;;17.50;47.10;;;;;;8336144;28;19924;-46
2022/11/30 03:46:58;;;;;;;;;;;17.50;47.10;;;;;;8336359;28;19920;-46
2022/11/30 03:50:58;;;;;;;;;;;17.50;47.10;;;;;;8336302;28;20464;-45
2022/11/30 03:54:58;;;;;;;;;;;17.50;47.20;;;;;;8335606;28;20007;-46
2022/11/30 03:58:59;;;;;;;;;;;17.50;47.70;;;;;;8336119;28;19917;-45
2022/11/30 04:02:59;;;;;;;;;;;17.50;47.20;;;;;;8335742;28;19956;-46
2022/11/30 04:07:00;;;;;;;;;;;17.50;47.10;;;;;;8335391;28;19965;-46
2022/11/30 04:11:01;;;;;;;;;;;17.50;47.10;;;;;;8335753;28;19918;-45
2022/11/30 04:15:02;;;;;;;;;;;17.50;47.10;;;;;;8335597;28;20283;-45
2022/11/30 04:19:04;;;;;;;;;;;17.50;47.20;;;;;;8334271;28;21552;-46
2022/11/30 04:23:04;;;;;;;;;;;17.50;47.30;;;;;;8335637;28;20290;-46
2022/11/30 04:27:05;;;;;;;;;;;17.50;47.20;;;;;;8335479;28;19913;-45
2022/11/30 04:31:05;;;;;;;;;;;17.50;47.30;;;;;;8334491;28;20298;-46
2022/11/30 04:35:06;;;;;;;;;;;17.50;47.20;;;;;;8334990;28;20015;-45
2022/11/30 04:39:06;;;;;;;;;;;17.60;47.30;;;;;;8334776;28;20159;-45
2022/11/30 04:43:07;;;;;;;;;;;17.60;47.30;;;;;;8333964;28;19960;-45
2022/11/30 04:47:08;;;;;;;;;;;17.60;47.30;;;;;;8334679;28;19913;-45
2022/11/30 04:51:08;;;;;;;;;;;17.60;47.10;;;;;;8333694;28;19924;-46
2022/11/30 04:55:09;;;;;;;;;;;17.60;47.20;;;;;;8333725;28;19945;-46
2022/11/30 04:59:09;;;;;;;;;;;17.70;47.00;;;;;;8334282;28;19917;-45
2022/11/30 05:03:10;;;;;;;;;;;17.60;47.10;;;;;;8333814;28;19920;-46
2022/11/30 05:07:10;;;;;;;;;;;17.70;47.10;;;;;;8332733;28;20293;-45
2022/11/30 05:11:10;;;;;;;;;;;17.70;47.10;;;;;;8333558;28;20282;-45
2022/11/30 05:15:11;;;;;;;;;;;17.60;47.10;;;;;;8333694;28;19917;-45
2022/11/30 05:19:13;;;;;;;;;;;17.70;47.10;;;;;;8333666;28;19928;-45
2022/11/30 05:23:15;;;;;;;;;;;17.60;47.10;;;;;;8333432;28;20007;-45
2022/11/30 05:27:15;;;;;;;;;;;17.70;47.20;;;;;;8333483;28;19917;-46
2022/11/30 05:31:16;;;;;;;;;;;17.70;47.20;;;;;;8332607;28;19925;-47
2022/11/30 05:35:16;;;;;;;;;;;17.60;47.10;;;;;;8332930;28;20442;-46
2022/11/30 05:39:16;;;;;;;;;;;17.60;47.10;;;;;;8332839;28;19921;-46
2022/11/30 05:43:17;;;;;;;;;;;17.60;47.00;;;;;;8332834;28;19914;-45
2022/11/30 05:47:18;;;;;;;;;;;17.60;47.00;;;;;;8333006;28;20279;-46
2022/11/30 05:51:19;;;;;;;;;;;17.60;47.10;;;;;;8332551;28;19917;-46
2022/11/30 05:55:19;;;;;;;;;;;17.60;47.10;;;;;;8331851;28;19918;-46
2022/11/30 05:59:20;;;;;;;;;;;17.60;47.60;;;;;;8332303;28;19921;-46
2022/11/30 06:03:20;;;;;;;;;;;17.60;47.10;;;;;;8331270;28;19917;-45
2022/11/30 06:07:20;;;;;;;;;;;17.60;47.10;;;;;;8331644;28;19921;-45
2022/11/30 06:11:21;;;;;;;;;;;17.50;47.00;;;;;;8331805;28;19917;-46
2022/11/30 06:15:21;;;;;;;;;;;17.50;47.00;;;;;;8331703;28;19923;-45
2022/11/30 06:19:22;;;;;;;;;;;17.60;47.10;;;;;;8331125;28;19963;-46
2022/11/30 06:23:22;;;;;;;;;;;17.50;47.00;;;;;;8331880;28;20293;-46
2022/11/30 06:27:23;;;;;;;;;;;17.50;47.00;;;;;;8331457;28;19917;-45
2022/11/30 06:31:23;;;;;;;;;;;17.50;47.10;;;;;;8330782;28;19917;-46
2022/11/30 06:35:24;;;;;;;;;;;17.50;47.00;;;;;;8331323;28;19917;-45
2022/11/30 06:39:25;;;;;;;;;;;17.50;47.10;;;;;;8331457;28;20270;-46
2022/11/30 06:43:25;;;;;;;;;;;17.50;47.10;;;;;;8330702;28;19921;-45
2022/11/30 06:47:26;;;;;;;;;;;17.50;47.10;;;;;;8330751;28;19925;-46
2022/11/30 06:51:26;;;;;;;;;;;17.50;47.10;;;;;;8330735;28;19925;-46
2022/11/30 06:55:31;;;;;;;;;;;17.50;47.10;;;;;;8330435;28;20358;-46
2022/11/30 06:59:31;;;;;;;;;;;17.50;47.10;;;;;;8330530;28;19924;-47
2022/11/30 07:03:32;;;;;;;;;;;17.50;47.10;;;;;;8330870;28;19917;-45
2022/11/30 07:07:32;;;;;;;;;;;17.40;47.10;;;;;;8329825;28;19921;-46
2022/11/30 07:11:33;;;;;;;;;;;17.40;47.10;;;;;;8330410;28;19917;-45
2022/11/30 07:15:34;;;;;;;;;;;17.40;47.10;;;;;;8329554;28;20393;-44
2022/11/30 07:19:34;;;;;;;;;;;17.40;47.10;;;;;;8330060;28;19917;-44
2022/11/30 07:27:54;;;;;;;;;;;17.40;47.10;;;;;;8330788;28;19924;-45
2022/11/30 07:31:55;;;;;;;;;;;17.40;47.20;;;;;;8329985;28;19917;-45
2022/11/30 07:35:55;;;;;;;;;;;17.40;47.20;;;;;;8329749;28;19953;-45
2022/11/30 07:39:56;;;;;;;;;;;17.40;47.20;;;;;;8329496;28;19918;-45
2022/11/30 07:43:56;;;;;;;;;;;17.40;47.20;;;;;;8330194;28;19979;-45
2022/11/30 07:47:59;;;;;;;;;;;17.40;47.20;;;;;;8329785;28;19924;-45
2022/11/30 07:52:03;;;;;;;;;;;17.40;47.20;;;;;;8329168;28;19917;-46
2022/11/30 07:56:04;;;;;;;;;;;17.40;47.20;;;;;;8329629;28;19979;-45
2022/11/30 08:00:05;;;;;;;;;;;17.40;47.20;;;;;;8329537;28;19917;-46
2022/11/30 08:04:06;;;;;;;;;;;17.40;47.20;;;;;;8309443;28;19925;-49
2022/11/30 08:08:06;;;;;;;;;;;17.40;47.20;;;;;;8328059;28;19924;-46
2022/11/30 08:12:07;;;;;;;;;;;17.40;47.20;;;;;;8329415;28;19925;-47
2022/11/30 08:16:08;;;;;;;;;;;17.40;47.30;;;;;;8328771;28;19917;-45
2022/11/30 08:20:10;;;;;;;;;;;17.40;47.30;;;;;;8329231;28;19917;-45
2022/11/30 08:24:12;;;;;;;;;;;17.40;47.30;;;;;;8329380;28;20001;-45
2022/11/30 08:28:13;;;;;;;;;;;17.40;47.30;;;;;;8332915;28;19917;-45
2022/11/30 08:32:13;;;;;;;;;;;17.40;47.30;;;;;;8334759;28;19917;-45
2022/11/30 08:36:15;;;;;;;;;;;17.40;47.30;;;;;;8334755;28;20401;-46
2022/11/30 08:40:15;;;;;;;;;;;17.40;47.30;;;;;;8334117;28;20346;-45
2022/11/30 08:44:16;;;;;;;;;;;17.40;47.30;;;;;;8334658;28;19929;-45
2022/11/30 08:48:16;;;;;;;;;;;17.40;47.20;;;;;;8334384;28;19921;-46
2022/11/30 08:52:17;;;;;;;;;;;17.40;47.30;;;;;;8333851;28;20298;-45
2022/11/30 08:56:18;;;;;;;;;;;17.40;47.30;;;;;;8334046;28;19922;-44
2022/11/30 09:00:19;;;;;;;;;;;17.40;47.30;;;;;;8334162;28;20008;-45
2022/11/30 09:04:19;;;;;;;;;;;17.40;47.30;;;;;;8333876;28;19925;-44
2022/11/30 09:08:20;;;;;;;;;;;17.30;47.20;;;;;;8333626;28;19921;-45
2022/11/30 09:12:20;;;;;;;;;;;17.40;47.30;;;;;;8333868;28;19921;-47
2022/11/30 09:16:21;;;;;;;;;;;17.40;47.30;;;;;;8333717;28;20382;-48
2022/11/30 09:20:21;;;;;;;;;;;17.40;47.30;;;;;;8333302;28;19917;-46
2022/11/30 09:24:22;;;;;;;;;;;17.40;47.30;;;;;;8333343;28;19921;-46
2022/11/30 09:28:22;;;;;;;;;;;17.40;47.30;;;;;;8331495;28;20485;-45
2022/11/30 09:32:22;;;;;;;;;;;17.50;47.30;;;;;;8332979;28;19917;-46
2022/11/30 09:36:26;;;;;;;;;;;17.50;47.50;;;;;;8332459;28;19924;-46
2022/11/30 09:40:27;;;;;;;;;;;17.50;47.30;;;;;;8332063;28;20000;-47
2022/11/30 09:44:30;;;;;;;;;;;17.60;47.30;;;;;;8332750;28;19925;-46
2022/11/30 09:48:30;;;;;;;;;;;17.60;47.20;;;;;;8332403;28;19917;-47
2022/11/30 09:52:36;;;;;;;;;;;17.60;47.00;;;;;;8332273;28;20275;-46
2022/11/30 09:56:41;;;;;;;;;;;17.60;47.00;;;;;;8332096;28;19917;-46
2022/11/30 10:00:41;;;;;;;;;;;17.60;47.00;;;;;;8331621;28;20368;-45
2022/11/30 10:04:42;;;;;;;;;;;17.60;46.90;;;;;;8332446;28;19921;-46
2022/11/30 10:08:42;;;;;;;;;;;17.60;47.50;;;;;;8331963;28;19988;-45
2022/11/30 10:12:58;;;;;;;;;;;17.60;46.90;;;;;;8331158;28;20362;-48
2022/11/30 10:17:05;;;;;;;;;;;17.60;46.90;;;;;;8331649;28;19923;-46
2022/11/30 10:21:13;;;;;;;;;;;17.70;47.00;;;;;;8331589;28;20348;-46
2022/11/30 10:25:14;;;;;;;;;;;17.70;47.00;;;;;;8331437;28;19925;-47
2022/11/30 10:29:19;;;;;;;;;;;17.60;46.90;;;;;;8331640;28;20366;-46
2022/11/30 10:33:24;;;;;;;;;;;17.70;46.90;;;;;;8331351;28;19917;-46
2022/11/30 10:37:29;;;;;;;;;;;17.70;46.90;;;;;;8330736;28;19979;-47
2022/11/30 10:41:35;;;;;;;;;;;17.60;47.00;;;;;;8331102;28;19924;-47
2022/11/30 10:45:39;;;;;;;;;;;17.60;46.90;;;;;;8330482;28;19925;-46
2022/11/30 10:49:44;;;;;;;;;;;17.60;46.90;;;;;;8330272;28;19913;-46
2022/11/30 10:53:44;;;;;;;;;;;17.60;46.90;;;;;;8330717;28;19986;-46
2022/11/30 10:57:45;;;;;;;;;;;17.60;47.00;;;;;;8330106;28;20016;-46
2022/11/30 11:01:46;;;;;;;;;;;17.60;46.90;;;;;;8330383;28;19917;-47
2022/11/30 11:05:46;;;;;;;;;;;17.60;46.90;;;;;;8330167;28;20348;-45
2022/11/30 11:09:48;;;;;;;;;;;17.60;46.90;;;;;;8324486;28;19925;-45
2022/11/30 11:13:49;;;;;;;;;;;17.60;46.90;;;;;;8324542;28;19917;-44
2022/11/30 11:17:50;;;;;;;;;;;17.60;46.90;;;;;;8330232;28;19920;-46
2022/11/30 11:21:51;;;;;;;;;;;17.60;46.90;;;;;;8330118;28;19940;-45
2022/11/30 11:25:52;;;;;;;;;;;17.60;46.90;;;;;;8329949;28;19948;-45
2022/11/30 11:30:04;;;;;;;;;;;17.50;46.90;;;;;;8330188;28;19936;-46
2022/11/30 11:34:21;;;;;;;;;;;17.60;46.80;;;;;;8329601;28;19948;-45
2022/11/30 11:38:29;;;;;;;;;;;17.60;46.80;;;;;;8329841;28;19917;-45
2022/11/30 11:42:31;;;;;;;;;;;17.50;46.80;;;;;;8329749;28;20395;-45
2022/11/30 11:46:33;;;;;;;;;;;17.50;46.80;;;;;;8329103;28;20516;-44
2022/11/30 11:50:35;;;;;;;;;;;17.50;46.80;;;;;;8330265;28;19917;-45
2022/11/30 11:54:42;;;;;;;;;;;17.50;46.80;;;;;;8329311;28;19917;-45
2022/11/30 11:59:00;;;;;;;;;;;17.50;46.80;;;;;;8329617;28;20309;-46
2022/11/30 12:03:33;;;;;;;;;;;17.50;46.80;;;;;;8335322;28;20015;-44
2022/11/30 12:07:37;;;;;;;;;;;17.50;46.80;;;;;;8301996;28;19932;-46
2022/11/30 12:11:42;;;;;;;;;;;17.60;46.80;;;;;;8335555;28;19925;-45
2022/11/30 12:15:50;;;;;;;;;;;17.50;46.80;;;;;;8335432;28;19913;-45
2022/11/30 12:20:03;;;;;;;;;;;17.50;46.70;;;;;;8335017;28;19917;-48
2022/11/30 12:24:12;;;;;;;;;;;17.50;46.70;;;;;;8335093;28;19929;-45
2022/11/30 12:28:22;;;;;;;;;;;17.50;46.70;;;;;;8334533;28;19963;-45
2022/11/30 12:32:42;;;;;;;;;;;17.50;46.70;;;;;;8334757;28;19924;-45
2022/11/30 12:37:03;;;;;;;;;;;17.50;46.70;;;;;;8333912;28;19959;-44
2022/11/30 12:41:24;;;;;;;;;;;17.50;46.70;;;;;;8334893;28;20328;-45
2022/11/30 12:45:30;;;;;;;;;;;17.50;46.70;;;;;;8324274;28;19951;-45
2022/11/30 12:49:49;;;;;;;;;;;17.50;46.70;;;;;;8333932;28;20000;-45
2022/11/30 12:54:06;;;;;;;;;;;17.50;46.60;;;;;;8334300;28;19925;-46
2022/11/30 12:58:09;;;;;;;;;;;17.50;46.60;;;;;;8333720;28;19924;-45
2022/11/30 13:02:30;;;;;;;;;;;17.50;46.60;;;;;;8334029;28;19963;-46
2022/11/30 13:06:33;;;;;;;;;;;17.50;46.70;;;;;;8333908;28;19921;-45
2022/11/30 13:10:49;;;;;;;;;;;17.50;46.60;;;;;;8333473;28;20305;-45
2022/11/30 13:14:54;;;;;;;;;;;17.50;46.60;;;;;;8333029;28;19917;-47
2022/11/30 13:18:58;;;;;;;;;;;17.60;46.60;;;;;;8333163;28;19930;-45
2022/11/30 13:23:01;;;;;;;;;;;17.50;46.60;;;;;;8333355;28;20370;-46
2022/11/30 13:27:07;;;;;;;;;;;17.50;46.60;;;;;;8333294;28;20012;-49
2022/11/30 13:31:09;;;;;;;;;;;17.50;46.60;;;;;;8333058;28;19918;-47
2022/11/30 13:35:28;;;;;;;;;;;17.50;46.60;;;;;;8333056;28;19940;-49
2022/11/30 13:39:29;;;;;;;;;;;17.50;47.20;;;;;;8332887;28;20370;-46
2022/11/30 13:43:34;;;;;;;;;;;17.50;46.60;;;;;;8332398;28;19924;-45
2022/11/30 13:47:35;;;;;;;;;;;17.50;46.60;;;;;;8332962;28;19917;-46
2022/11/30 13:51:37;;;;;;;;;;;17.60;46.60;;;;;;8332267;28;19932;-46
2022/11/30 13:55:37;;;;;;;;;;;17.60;46.60;;;;;;8333459;28;19921;-45
2022/11/30 13:59:44;;;;;;;;;;;17.50;47.10;;;;;;8332110;28;19917;-45
2022/11/30 14:04:04;;;;;;;;;;;17.50;46.60;;;;;;8331647;28;19968;-48
2022/11/30 14:08:05;;;;;;;;;;;17.50;46.60;;;;;;8310755;28;20328;-45
2022/11/30 14:12:24;;;;;;;;;;;17.50;46.60;;;;;;8331843;28;19924;-47
2022/11/30 14:16:28;;;;;;;;;;;17.50;46.60;;;;;;8331483;28;19920;-47
2022/11/30 14:20:32;;;;;;;;;;;17.50;46.60;;;;;;8331517;28;19951;-46
2022/11/30 14:24:32;;;;;;;;;;;17.40;46.60;;;;;;8330203;28;19925;-44
2022/11/30 14:28:38;;;;;;;;;;;17.50;46.70;;;;;;8331318;28;19944;-46
2022/11/30 14:32:41;;;;;;;;;;;17.50;46.60;;;;;;8331218;28;20071;-46
2022/11/30 14:36:50;;;;;;;;;;;17.50;46.60;;;;;;8330914;28;19996;-46
2022/11/30 14:40:51;;;;;;;;;;;17.50;46.60;;;;;;8330997;28;19925;-48
2022/11/30 14:44:52;;;;;;;;;;;17.50;46.60;;;;;;8330751;28;19957;-46
2022/11/30 14:49:02;;;;;;;;;;;17.50;46.60;;;;;;8330450;28;19952;-48
2022/11/30 14:53:21;;;;;;;;;;;17.40;46.50;;;;;;8330773;28;19948;-48
2022/11/30 14:57:25;;;;;;;;;;;17.50;46.60;;;;;;8330474;28;19913;-46
2022/11/30 15:01:27;;;;;;;;;;;17.40;46.50;;;;;;8330253;28;19962;-45
2022/11/30 15:05:29;;;;;;;;;;;17.50;46.50;;;;;;8330271;28;20309;-45
2022/11/30 15:09:31;;;;;;;;;;;17.40;46.50;;;;;;8330198;28;19921;-47
2022/11/30 15:13:31;;;;;;;;;;;17.40;46.50;;;;;;8329807;28;20362;-48
2022/11/30 15:17:41;;;;;;;;;;;17.40;46.50;;;;;;8329915;28;20000;-48
2022/11/30 15:21:44;;;;;;;;;;;17.40;46.50;;;;;;8329667;28;20000;-48
2022/11/30 15:25:46;;;;;;;;;;;17.40;46.40;;;;;;8329913;28;19929;-46
2022/11/30 15:29:57;;;;;;;;;;;17.40;46.50;;;;;;8329793;28;20468;-48
2022/11/30 15:33:58;;;;;;;;;;;17.40;46.50;;;;;;8329485;28;19917;-48
2022/11/30 15:37:58;;;;;;;;;;;17.40;46.50;;;;;;8334369;28;20328;-44
2022/11/30 15:42:00;;;;;;;;;;;17.40;46.50;;;;;;8336446;28;19920;-45
2022/11/30 15:46:00;;;;;;;;;;;17.40;47.00;;;;;;8335795;28;20040;-48
2022/11/30 15:50:02;;;;;;;;;;;17.40;46.50;;;;;;8336468;28;20366;-48
2022/11/30 15:54:02;;;;;;;;;;;17.40;46.50;;;;;;8336582;28;19944;-48
2022/11/30 15:58:03;;;;;;;;;;;17.40;46.50;;;;;;8335524;28;19917;-48
2022/11/30 16:02:07;;;;;;;;;;;17.40;46.50;;;;;;8336404;28;19919;-48
2022/11/30 16:06:16;;;;;;;;;;;17.40;46.50;;;;;;8335758;28;19936;-46
2022/11/30 16:10:22;;;;;;;;;;;17.40;46.50;;;;;;8335269;28;19925;-45
2022/11/30 16:14:23;;;;;;;;;;;17.40;46.40;;;;;;8335384;28;19924;-49
2022/11/30 16:18:24;;;;;;;;;;;17.40;46.40;;;;;;8336111;28;19913;-48
2022/11/30 16:22:25;;;;;;;;;;;17.40;46.50;;;;;;8334976;28;19952;-46
2022/11/30 16:26:25;;;;;;;;;;;17.40;46.50;;;;;;8334979;28;19929;-46
2022/11/30 16:30:28;;;;;;;;;;;17.40;46.40;;;;;;8335001;28;20004;-45
2022/11/30 16:34:29;;;;;;;;;;;17.50;46.50;;;;;;8334695;28;19917;-46
2022/11/30 16:38:29;;;;;;;;;;;17.60;46.50;;;;;;8334773;28;19920;-47
2022/11/30 16:42:30;;;;;;;;;;;17.50;46.30;;;;;;8334827;28;19921;-45
2022/11/30 16:46:30;;;;;;;;;;;17.60;46.40;;;;;;8332860;28;20412;-47
2022/11/30 16:50:33;;;;;;;;;;;17.60;46.30;;;;;;8334321;28;20011;-46
2022/11/30 16:54:33;;;;;;;;;;;17.60;46.10;;;;;;8333902;28;19936;-49
2022/11/30 16:58:34;;;;;;;;;;;17.60;46.20;;;;;;8334158;28;19913;-48
2022/11/30 17:02:37;;;;;;;;;;;17.60;46.20;;;;;;8334432;28;19924;-46
2022/11/30 17:06:37;;;;;;;;;;;17.60;46.20;;;;;;8333202;28;20321;-46
2022/11/30 17:10:38;;;;;;;;;;;17.60;46.10;;;;;;8331885;28;19967;-46
2022/11/30 17:14:38;;;;;;;;;;;17.60;46.20;;;;;;8333970;28;19924;-45
2022/11/30 17:18:39;;;;;;;;;;;17.60;46.10;;;;;;8333146;28;20291;-46
2022/11/30 17:22:40;;;;;;;;;;;17.60;46.10;;;;;;8333569;28;19923;-48
2022/11/30 17:26:41;;;;;;;;;;;17.60;46.10;;;;;;8333275;28;19925;-49
2022/11/30 17:30:41;;;;;;;;;;;17.60;46.10;;;;;;8332733;28;20004;-47
2022/11/30 17:34:42;;;;;;;;;;;17.60;46.10;;;;;;8333026;28;19988;-46
2022/11/30 17:38:42;;;;;;;;;;;17.60;46.10;;;;;;8333132;28;19917;-48
2022/11/30 17:42:43;;;;;;;;;;;17.60;46.10;;;;;;8332570;28;19913;-45
2022/11/30 17:46:43;;;;;;;;;;;17.60;46.10;;;;;;8332515;28;19964;-49
2022/11/30 17:50:44;;;;;;;;;;;17.50;46.70;;;;;;8332624;28;20381;-49
2022/11/30 17:54:44;;;;;;;;;;;17.50;46.10;;;;;;8341998;28;20354;-47
2022/11/30 17:58:47;;;;;;;;;;;17.60;46.10;;;;;;8327163;28;19917;-47
2022/11/30 18:02:49;;;;;;;;;;;17.50;46.10;;;;;;8332636;28;20362;-46
2022/11/30 18:06:49;;;;;;;;;;;17.50;46.10;;;;;;8331479;28;19955;-49
2022/11/30 18:10:50;;;;;;;;;;;17.50;46.10;;;;;;8331985;28;19917;-49
2022/11/30 18:14:50;;;;;;;;;;;17.50;46.10;;;;;;8331975;28;19940;-49
2022/11/30 18:18:52;;;;;;;;;;;17.50;46.10;;;;;;8331280;28;19925;-47
2022/11/30 18:22:52;;;;;;;;;;;17.50;46.10;;;;;;8332311;28;19914;-47
2022/11/30 18:26:52;;;;;;;;;;;17.50;46.10;;;;;;8332053;28;19926;-48
2022/11/30 18:30:53;;;;;;;;;;;17.50;46.20;;;;;;8330937;28;20381;-48
2022/11/30 18:34:53;;;;;;;;;;;17.40;46.10;;;;;;8331135;28;19917;-48
2022/11/30 18:38:54;;;;;;;;;;;17.40;46.10;;;;;;8341169;28;20370;-48
2022/11/30 18:42:54;;;;;;;;;;;17.40;46.10;;;;;;8360991;28;19923;-48
2022/11/30 18:46:55;;;;;;;;;;;17.50;46.20;;;;;;8335964;28;20412;-45
2022/11/30 18:50:55;;;;;;;;;;;17.40;46.20;;;;;;8330752;28;19921;-45
2022/11/30 18:54:56;;;;;;;;;;;17.40;46.10;;;;;;8330334;28;19945;-48
2022/11/30 18:58:58;;;;;;;;;;;17.40;46.10;;;;;;8330945;28;19913;-46
2022/11/30 19:02:58;;;;;;;;;;;17.40;46.10;;;;;;8330635;28;19913;-44
2022/11/30 19:06:59;;;;;;;;;;;17.40;46.10;;;;;;8329602;28;19925;-45
2022/11/30 19:11:00;;;;;;;;;;;17.40;46.10;;;;;;8328469;28;19928;-45
2022/11/30 19:15:03;;;;;;;;;;;17.40;46.20;;;;;;8330294;28;19918;-44
2022/11/30 19:19:05;;;;;;;;;;;17.40;46.10;;;;;;8329897;28;20375;-45
2022/11/30 19:23:05;;;;;;;;;;;17.40;46.20;;;;;;8330542;28;19999;-45
2022/11/30 19:27:06;;;;;;;;;;;17.40;46.20;;;;;;8330369;28;20345;-44
2022/11/30 19:31:08;;;;;;;;;;;17.40;46.10;;;;;;8329474;28;19917;-45
2022/11/30 19:35:08;;;;;;;;;;;17.40;46.20;;;;;;8330125;28;20281;-45
2022/11/30 19:39:09;;;;;;;;;;;17.40;46.20;;;;;;8329996;28;19939;-45
2022/11/30 19:43:09;;;;;;;;;;;17.40;46.20;;;;;;8329566;28;19913;-45
2022/11/30 19:47:10;;;;;;;;;;;17.40;46.20;;;;;;8329665;28;19932;-45
2022/11/30 19:51:11;;;;;;;;;;;17.30;46.20;;;;;;8329742;28;19925;-45
2022/11/30 19:55:12;;;;;;;;;;;17.30;46.10;;;;;;8329187;28;20325;-45
2022/11/30 19:59:12;;;;;;;;;;;17.40;46.20;;;;;;8329860;28;19968;-44
2022/11/30 20:03:13;;;;;;;;;;;17.30;46.20;;;;;;8329630;28;19925;-45
2022/11/30 20:07:13;;;;;;;;;;;17.40;46.30;;;;;;8328802;28;19969;-45
2022/11/30 20:11:14;;;;;;;;;;;17.30;46.20;;;;;;8315735;28;20374;-45
2022/11/30 20:15:15;;;;;;;;;;;17.30;46.20;;;;;;8305869;28;19983;-45
2022/11/30 20:19:16;;;;;;;;;;;17.30;46.20;;;;;;8328903;28;19922;-46
2022/11/30 20:23:16;;;;;;;;;;;17.30;46.10;;;;;;8332556;28;19923;-45
2022/11/30 20:27:21;;;;;;;;;;;17.30;46.20;;;;;;8335107;28;20128;-46
2022/11/30 20:31:22;;;;;;;;;;;17.30;46.10;;;;;;8334633;28;19936;-45
2022/11/30 20:35:22;;;;;;;;;;;17.30;46.10;;;;;;8334783;28;20397;-45
2022/11/30 20:39:23;;;;;;;;;;;17.30;46.10;;;;;;8334744;28;19913;-45
2022/11/30 20:43:23;;;;;;;;;;;17.30;46.10;;;;;;8334577;28;20350;-44
2022/11/30 20:47:24;;;;;;;;;;;17.30;46.20;;;;;;8334384;28;19932;-45
2022/11/30 20:51:28;;;;;;;;;;;17.30;46.10;;;;;;8334547;28;20378;-45
2022/11/30 20:55:29;;;;;;;;;;;17.30;46.10;;;;;;8334336;28;20285;-45
2022/11/30 20:59:29;;;;;;;;;;;17.30;46.10;;;;;;8334707;28;19919;-45
2022/11/30 21:03:30;;;;;;;;;;;17.40;46.20;;;;;;8334558;28;19955;-44
2022/11/30 21:07:30;;;;;;;;;;;17.40;46.10;;;;;;8333344;28;19925;-44
2022/11/30 21:11:31;;;;;;;;;;;17.40;46.20;;;;;;8333861;28;20012;-44
2022/11/30 21:15:31;;;;;;;;;;;17.40;46.10;;;;;;8333954;28;19917;-45
2022/11/30 21:19:32;;;;;;;;;;;17.50;46.10;;;;;;8333398;28;20223;-46
2022/11/30 21:23:32;;;;;;;;;;;17.60;46.10;;;;;;8333705;28;19949;-46
2022/11/30 21:27:33;;;;;;;;;;;17.50;45.80;;;;;;8333024;28;19925;-46
2022/11/30 21:31:33;;;;;;;;;;;17.60;45.80;;;;;;8333359;28;19924;-46
2022/11/30 21:35:36;;;;;;;;;;;17.50;45.70;;;;;;8332866;28;19921;-46
2022/11/30 21:39:36;;;;;;;;;;;17.50;45.70;;;;;;8332852;28;19920;-48
2022/11/30 21:43:37;;;;;;;;;;;17.50;45.70;;;;;;8332897;28;20509;-46
2022/11/30 21:47:38;;;;;;;;;;;17.50;45.70;;;;;;8332777;28;19971;-45
2022/11/30 21:51:38;;;;;;;;;;;17.60;45.70;;;;;;8332286;28;20341;-45
2022/11/30 21:55:39;;;;;;;;;;;17.60;45.70;;;;;;8332844;28;19924;-47
2022/11/30 21:59:39;;;;;;;;;;;17.50;45.70;;;;;;8332733;28;19918;-47
2022/11/30 22:03:40;;;;;;;;;;;17.50;45.70;;;;;;8331832;28;19917;-48
2022/11/30 22:07:40;;;;;;;;;;;17.50;45.80;;;;;;8332096;28;19921;-46
2022/11/30 22:11:41;;;;;;;;;;;17.50;45.80;;;;;;8332040;28;19917;-47
2022/11/30 22:15:42;;;;;;;;;;;17.50;45.80;;;;;;8331885;28;19917;-48
2022/11/30 22:19:42;;;;;;;;;;;17.50;45.80;;;;;;8331968;28;19967;-46
2022/11/30 22:23:44;;;;;;;;;;;17.50;45.80;;;;;;8331681;28;19917;-47
2022/11/30 22:27:44;;;;;;;;;;;17.50;45.90;;;;;;8331050;28;19921;-46
2022/11/30 22:31:46;;;;;;;;;;;17.40;45.90;;;;;;8331384;28;19918;-45
2022/11/30 22:35:46;;;;;;;;;;;17.40;45.90;;;;;;8331457;28;20457;-46
2022/11/30 22:39:47;;;;;;;;;;;17.40;45.90;;;;;;8331026;28;19913;-46
2022/11/30 22:43:48;;;;;;;;;;;17.40;46.00;;;;;;8330854;28;20005;-46
2022/11/30 22:47:49;;;;;;;;;;;17.40;46.00;;;;;;8330583;28;19925;-45
2022/11/30 22:51:50;;;;;;;;;;;17.40;45.90;;;;;;8330520;28;19921;-44
2022/11/30 22:55:50;;;;;;;;;;;17.40;45.90;;;;;;8330707;28;19924;-46
2022/11/30 22:59:51;;;;;;;;;;;17.40;45.90;;;;;;8330953;28;19921;-46
2022/11/30 23:03:52;;;;;;;;;;;17.40;45.80;;;;;;8314151;28;20425;-46
2022/11/30 23:07:52;;;;;;;;;;;17.40;45.80;;;;;;8330217;28;19925;-45
2022/11/30 23:11:53;;;;;;;;;;;17.40;45.80;;;;;;8330522;28;19924;-45
2022/11/30 23:15:56;;;;;;;;;;;17.40;45.70;;;;;;8337099;28;19917;-45
2022/11/30 23:19:56;;;;;;;;;;;17.40;45.70;;;;;;8330777;28;20322;-45
2022/11/30 23:23:59;;;;;;;;;;;17.40;45.70;;;;;;8330146;28;19917;-45
2022/11/30 23:27:59;;;;;;;;;;;17.40;45.70;;;;;;8330401;28;19925;-46
2022/11/30 23:32:00;;;;;;;;;;;17.40;45.70;;;;;;8330113;28;19963;-45